sensor_id;sensor_type;location;lat;lon;timestamp;temperature;humidity
5364;DHT22;2705;41.410;2.160;2023-05-10T00:01:09;19.50;99.90
5364;DHT22;2705;41.410;2.160;2023-05-10T00:03:40;19.40;99.90
5364;DHT22;2705;41.410;2.160;2023-05-10T00:06:09;19.40;99.90
5364;DHT22;2705;41.410;2.160;2023-05-10T00:08:38;19.20;99.90
5364;DHT22;2705;41.410;2.160;2023-05-10T00:11:07;19.20;99.90
5364;DHT22;2705;41.410;2.160;2023-05-10T00:13:36;19.10;99.90
5364;DHT22;2705;41.410;2.160;2023-05-10T00:16:05;19.20;99.90
5364;DHT22;2705;41.410;2.160;2023-05-10T00:18:35;19.20;99.90
5364;DHT22;2705;41.410;2.160;2023-05-10T00:21:06;19.30;99.90
5364;DHT22;2705;41.410;2.160;2023-05-10T00:23:35;19.30;99.90
5364;DHT22;2705;41.410;2.160;2023-05-10T00:26:04;19.30;99.90
5364;DHT22;2705;41.410;2.160;2023-05-10T00:28:33;19.20;99.90
5364;DHT22;2705;41.410;2.160;2023-05-10T00:31:03;19.10;99.90
5364;DHT22;2705;41.410;2.160;2023-05-10T00:33:32;19.20;99.90
5364;DHT22;2705;41.410;2.160;2023-05-10T00:36:00;19.20;99.90
5364;DHT22;2705;41.410;2.160;2023-05-10T00:38:31;19.20;99.90
5364;DHT22;2705;41.410;2.160;2023-05-10T00:41:00;19.30;99.90
5364;DHT22;2705;41.410;2.160;2023-05-10T00:43:31;19.30;99.90
5364;DHT22;2705;41.410;2.160;2023-05-10T00:46:00;19.20;99.90
5364;DHT22;2705;41.410;2.160;2023-05-10T00:48:30;19.20;99.90
5364;DHT22;2705;41.410;2.160;2023-05-10T00:51:01;19.30;99.90
5364;DHT22;2705;41.410;2.160;2023-05-10T00:53:32;19.20;99.90
5364;DHT22;2705;41.410;2.160;2023-05-10T00:56:04;19.10;99.90
5364;DHT22;2705;41.410;2.160;2023-05-10T00:58:34;19.10;99.90
5364;DHT22;2705;41.410;2.160;2023-05-10T01:01:03;19.10;99.90
5364;DHT22;2705;41.410;2.160;2023-05-10T01:03:33;19.30;99.90
5364;DHT22;2705;41.410;2.160;2023-05-10T01:06:03;19.50;99.90
5364;DHT22;2705;41.410;2.160;2023-05-10T01:08:33;19.60;99.90
5364;DHT22;2705;41.410;2.160;2023-05-10T01:11:02;19.40;99.90
5364;DHT22;2705;41.410;2.160;2023-05-10T01:13:33;19.30;99.90
5364;DHT22;2705;41.410;2.160;2023-05-10T01:16:04;19.60;99.90
5364;DHT22;2705;41.410;2.160;2023-05-10T01:18:36;19.80;99.90
5364;DHT22;2705;41.410;2.160;2023-05-10T01:21:15;19.90;99.90
5364;DHT22;2705;41.410;2.160;2023-05-10T01:24:02;19.90;99.90
5364;DHT22;2705;41.410;2.160;2023-05-10T01:27:12;19.80;99.90
5364;DHT22;2705;41.410;2.160;2023-05-10T01:30:08;20.00;99.90
5364;DHT22;2705;41.410;2.160;2023-05-10T01:32:50;19.90;99.90
5364;DHT22;2705;41.410;2.160;2023-05-10T01:35:33;19.80;99.90
5364;DHT22;2705;41.410;2.160;2023-05-10T01:38:11;19.50;99.90
5364;DHT22;2705;41.410;2.160;2023-05-10T01:40:47;19.30;99.90
5364;DHT22;2705;41.410;2.160;2023-05-10T01:43:21;19.00;99.90
5364;DHT22;2705;41.410;2.160;2023-05-10T01:45:59;18.90;99.90
5364;DHT22;2705;41.410;2.160;2023-05-10T01:48:33;18.90;99.90
5364;DHT22;2705;41.410;2.160;2023-05-10T01:51:04;19.10;99.90
5364;DHT22;2705;41.410;2.160;2023-05-10T01:53:35;19.50;99.90
5364;DHT22;2705;41.410;2.160;2023-05-10T01:56:08;19.70;99.90
5364;DHT22;2705;41.410;2.160;2023-05-10T01:58:39;19.80;99.90
5364;DHT22;2705;41.410;2.160;2023-05-10T02:01:11;19.90;99.90
5364;DHT22;2705;41.410;2.160;2023-05-10T02:04:09;20.00;99.90
5364;DHT22;2705;41.410;2.160;2023-05-10T02:06:39;20.00;99.90
5364;DHT22;2705;41.410;2.160;2023-05-10T02:09:09;19.90;99.90
5364;DHT22;2705;41.410;2.160;2023-05-10T02:11:40;19.80;99.90
5364;DHT22;2705;41.410;2.160;2023-05-10T02:14:10;19.70;99.90
5364;DHT22;2705;41.410;2.160;2023-05-10T02:16:40;19.70;99.90
5364;DHT22;2705;41.410;2.160;2023-05-10T02:19:12;19.80;99.90
5364;DHT22;2705;41.410;2.160;2023-05-10T02:21:43;19.30;99.90
5364;DHT22;2705;41.410;2.160;2023-05-10T02:24:14;19.50;99.90
5364;DHT22;2705;41.410;2.160;2023-05-10T02:26:45;19.40;99.90
5364;DHT22;2705;41.410;2.160;2023-05-10T02:29:16;19.40;99.90
5364;DHT22;2705;41.410;2.160;2023-05-10T02:31:45;19.10;99.90
5364;DHT22;2705;41.410;2.160;2023-05-10T02:34:17;19.10;99.90
5364;DHT22;2705;41.410;2.160;2023-05-10T02:36:46;19.10;99.90
5364;DHT22;2705;41.410;2.160;2023-05-10T02:39:16;19.40;99.90
5364;DHT22;2705;41.410;2.160;2023-05-10T02:41:46;19.50;99.90
5364;DHT22;2705;41.410;2.160;2023-05-10T02:44:19;19.70;99.90
5364;DHT22;2705;41.410;2.160;2023-05-10T02:46:48;19.40;99.90
5364;DHT22;2705;41.410;2.160;2023-05-10T02:49:19;19.40;99.90
5364;DHT22;2705;41.410;2.160;2023-05-10T02:51:53;19.30;99.90
5364;DHT22;2705;41.410;2.160;2023-05-10T02:54:27;19.50;99.90
5364;DHT22;2705;41.410;2.160;2023-05-10T02:56:59;19.50;99.90
5364;DHT22;2705;41.410;2.160;2023-05-10T02:59:29;19.30;99.90
5364;DHT22;2705;41.410;2.160;2023-05-10T03:01:58;19.50;99.90
5364;DHT22;2705;41.410;2.160;2023-05-10T03:04:30;19.60;99.90
5364;DHT22;2705;41.410;2.160;2023-05-10T03:07:00;19.70;99.90
5364;DHT22;2705;41.410;2.160;2023-05-10T03:09:29;19.50;99.90
5364;DHT22;2705;41.410;2.160;2023-05-10T03:12:04;19.30;99.90
5364;DHT22;2705;41.410;2.160;2023-05-10T03:14:44;19.50;99.90
5364;DHT22;2705;41.410;2.160;2023-05-10T03:17:19;19.60;99.90
5364;DHT22;2705;41.410;2.160;2023-05-10T03:19:55;19.70;99.90
5364;DHT22;2705;41.410;2.160;2023-05-10T03:22:34;19.70;99.90
5364;DHT22;2705;41.410;2.160;2023-05-10T03:25:08;19.60;99.90
5364;DHT22;2705;41.410;2.160;2023-05-10T03:27:42;19.30;99.90
5364;DHT22;2705;41.410;2.160;2023-05-10T03:30:12;19.20;99.90
5364;DHT22;2705;41.410;2.160;2023-05-10T03:32:42;19.20;99.90
5364;DHT22;2705;41.410;2.160;2023-05-10T03:35:13;19.40;99.90
5364;DHT22;2705;41.410;2.160;2023-05-10T03:37:44;19.40;99.90
5364;DHT22;2705;41.410;2.160;2023-05-10T03:40:13;19.30;99.90
5364;DHT22;2705;41.410;2.160;2023-05-10T03:42:44;19.50;99.90
5364;DHT22;2705;41.410;2.160;2023-05-10T03:45:12;19.60;99.90
5364;DHT22;2705;41.410;2.160;2023-05-10T03:47:42;19.60;99.90
5364;DHT22;2705;41.410;2.160;2023-05-10T03:50:11;19.50;99.90
5364;DHT22;2705;41.410;2.160;2023-05-10T03:52:42;19.50;99.90
5364;DHT22;2705;41.410;2.160;2023-05-10T03:55:12;19.60;99.90
5364;DHT22;2705;41.410;2.160;2023-05-10T03:57:41;19.30;99.90
5364;DHT22;2705;41.410;2.160;2023-05-10T04:00:11;19.00;99.90
5364;DHT22;2705;41.410;2.160;2023-05-10T04:02:43;19.10;99.90
5364;DHT22;2705;41.410;2.160;2023-05-10T04:05:18;19.10;99.90
5364;DHT22;2705;41.410;2.160;2023-05-10T04:07:48;19.20;99.90
5364;DHT22;2705;41.410;2.160;2023-05-10T04:10:18;19.10;99.90
5364;DHT22;2705;41.410;2.160;2023-05-10T04:12:48;18.90;99.90
5364;DHT22;2705;41.410;2.160;2023-05-10T04:15:17;18.80;99.90
5364;DHT22;2705;41.410;2.160;2023-05-10T04:17:47;18.90;99.90
5364;DHT22;2705;41.410;2.160;2023-05-10T04:20:17;18.90;99.90
5364;DHT22;2705;41.410;2.160;2023-05-10T04:22:46;18.90;99.90
5364;DHT22;2705;41.410;2.160;2023-05-10T04:25:16;18.80;99.90
5364;DHT22;2705;41.410;2.160;2023-05-10T04:27:45;18.90;99.90
5364;DHT22;2705;41.410;2.160;2023-05-10T04:30:14;18.90;99.90
5364;DHT22;2705;41.410;2.160;2023-05-10T04:32:44;18.90;99.90
5364;DHT22;2705;41.410;2.160;2023-05-10T04:35:13;19.00;99.90
5364;DHT22;2705;41.410;2.160;2023-05-10T04:37:42;18.90;99.90
5364;DHT22;2705;41.410;2.160;2023-05-10T04:40:11;18.80;99.90
5364;DHT22;2705;41.410;2.160;2023-05-10T04:42:43;18.70;99.90
5364;DHT22;2705;41.410;2.160;2023-05-10T04:45:12;18.50;99.90
5364;DHT22;2705;41.410;2.160;2023-05-10T04:47:42;18.40;99.90
5364;DHT22;2705;41.410;2.160;2023-05-10T04:50:11;18.30;99.90
5364;DHT22;2705;41.410;2.160;2023-05-10T04:52:40;18.30;99.90
5364;DHT22;2705;41.410;2.160;2023-05-10T04:55:09;18.40;99.90
5364;DHT22;2705;41.410;2.160;2023-05-10T04:57:38;18.40;99.90
5364;DHT22;2705;41.410;2.160;2023-05-10T05:00:10;18.30;99.90
5364;DHT22;2705;41.410;2.160;2023-05-10T05:02:42;18.30;99.90
5364;DHT22;2705;41.410;2.160;2023-05-10T05:05:12;18.20;99.90
5364;DHT22;2705;41.410;2.160;2023-05-10T05:07:41;18.20;99.90
5364;DHT22;2705;41.410;2.160;2023-05-10T05:10:10;18.20;99.90
5364;DHT22;2705;41.410;2.160;2023-05-10T05:12:39;18.20;99.90
5364;DHT22;2705;41.410;2.160;2023-05-10T05:15:11;18.10;99.90
5364;DHT22;2705;41.410;2.160;2023-05-10T05:17:40;18.10;99.90
5364;DHT22;2705;41.410;2.160;2023-05-10T05:20:10;18.10;99.90
5364;DHT22;2705;41.410;2.160;2023-05-10T05:22:40;18.20;99.90
5364;DHT22;2705;41.410;2.160;2023-05-10T05:25:09;18.30;99.90
5364;DHT22;2705;41.410;2.160;2023-05-10T05:27:39;18.10;99.90
5364;DHT22;2705;41.410;2.160;2023-05-10T05:30:10;18.10;99.90
5364;DHT22;2705;41.410;2.160;2023-05-10T05:32:40;18.10;99.90
5364;DHT22;2705;41.410;2.160;2023-05-10T05:35:09;18.00;99.90
5364;DHT22;2705;41.410;2.160;2023-05-10T05:37:39;18.00;99.90
5364;DHT22;2705;41.410;2.160;2023-05-10T05:40:12;17.90;99.90
5364;DHT22;2705;41.410;2.160;2023-05-10T05:42:41;18.00;99.90
5364;DHT22;2705;41.410;2.160;2023-05-10T05:45:12;18.10;99.90
5364;DHT22;2705;41.410;2.160;2023-05-10T05:47:42;18.20;99.90
5364;DHT22;2705;41.410;2.160;2023-05-10T05:50:11;18.30;99.90
5364;DHT22;2705;41.410;2.160;2023-05-10T05:52:40;18.20;99.90
5364;DHT22;2705;41.410;2.160;2023-05-10T05:55:09;18.20;99.90
5364;DHT22;2705;41.410;2.160;2023-05-10T05:57:39;18.20;99.90
5364;DHT22;2705;41.410;2.160;2023-05-10T06:00:09;18.20;99.90
5364;DHT22;2705;41.410;2.160;2023-05-10T06:02:42;18.20;99.90
5364;DHT22;2705;41.410;2.160;2023-05-10T06:05:11;17.90;99.90
5364;DHT22;2705;41.410;2.160;2023-05-10T06:07:41;18.00;99.90
5364;DHT22;2705;41.410;2.160;2023-05-10T06:10:10;18.10;99.90
5364;DHT22;2705;41.410;2.160;2023-05-10T06:12:39;18.10;99.90
5364;DHT22;2705;41.410;2.160;2023-05-10T06:15:10;18.20;99.90
5364;DHT22;2705;41.410;2.160;2023-05-10T06:17:39;18.30;99.90
5364;DHT22;2705;41.410;2.160;2023-05-10T06:20:11;18.40;99.90
5364;DHT22;2705;41.410;2.160;2023-05-10T06:22:41;18.40;99.90
5364;DHT22;2705;41.410;2.160;2023-05-10T06:25:10;18.60;99.90
5364;DHT22;2705;41.410;2.160;2023-05-10T06:27:40;18.60;99.90
5364;DHT22;2705;41.410;2.160;2023-05-10T06:30:10;18.50;99.90
5364;DHT22;2705;41.410;2.160;2023-05-10T06:32:40;18.50;99.90
5364;DHT22;2705;41.410;2.160;2023-05-10T06:35:13;18.60;99.90
5364;DHT22;2705;41.410;2.160;2023-05-10T06:37:42;18.60;99.90
5364;DHT22;2705;41.410;2.160;2023-05-10T06:40:11;18.80;99.90
5364;DHT22;2705;41.410;2.160;2023-05-10T06:42:40;18.80;99.90
5364;DHT22;2705;41.410;2.160;2023-05-10T06:45:10;18.80;99.90
5364;DHT22;2705;41.410;2.160;2023-05-10T06:47:39;18.90;99.90
5364;DHT22;2705;41.410;2.160;2023-05-10T06:50:09;19.00;99.90
5364;DHT22;2705;41.410;2.160;2023-05-10T06:52:40;19.10;99.90
5364;DHT22;2705;41.410;2.160;2023-05-10T06:55:10;19.20;99.90
5364;DHT22;2705;41.410;2.160;2023-05-10T06:57:39;19.30;99.90
5364;DHT22;2705;41.410;2.160;2023-05-10T07:00:09;19.40;99.90
5364;DHT22;2705;41.410;2.160;2023-05-10T07:02:38;19.50;99.90
5364;DHT22;2705;41.410;2.160;2023-05-10T07:05:08;19.50;99.90
5364;DHT22;2705;41.410;2.160;2023-05-10T07:07:37;19.60;99.90
5364;DHT22;2705;41.410;2.160;2023-05-10T07:10:09;19.50;99.90
5364;DHT22;2705;41.410;2.160;2023-05-10T07:12:38;19.60;99.90
5364;DHT22;2705;41.410;2.160;2023-05-10T07:15:08;19.60;99.90
5364;DHT22;2705;41.410;2.160;2023-05-10T07:17:37;19.60;99.90
5364;DHT22;2705;41.410;2.160;2023-05-10T07:20:10;19.40;99.90
5364;DHT22;2705;41.410;2.160;2023-05-10T07:22:39;19.60;99.90
5364;DHT22;2705;41.410;2.160;2023-05-10T07:25:10;19.50;99.90
5364;DHT22;2705;41.410;2.160;2023-05-10T07:27:39;19.50;99.90
5364;DHT22;2705;41.410;2.160;2023-05-10T07:30:09;19.40;99.90
5364;DHT22;2705;41.410;2.160;2023-05-10T07:32:38;19.40;99.90
5364;DHT22;2705;41.410;2.160;2023-05-10T07:35:09;19.40;99.90
5364;DHT22;2705;41.410;2.160;2023-05-10T07:37:38;19.60;99.90
5364;DHT22;2705;41.410;2.160;2023-05-10T07:40:10;19.60;99.90
5364;DHT22;2705;41.410;2.160;2023-05-10T07:42:39;19.60;99.90
5364;DHT22;2705;41.410;2.160;2023-05-10T07:45:08;19.60;99.90
5364;DHT22;2705;41.410;2.160;2023-05-10T07:47:37;19.60;99.90
5364;DHT22;2705;41.410;2.160;2023-05-10T07:50:08;19.70;99.90
5364;DHT22;2705;41.410;2.160;2023-05-10T07:52:37;19.70;99.90
5364;DHT22;2705;41.410;2.160;2023-05-10T07:55:07;19.80;99.90
5364;DHT22;2705;41.410;2.160;2023-05-10T07:57:38;19.80;99.90
5364;DHT22;2705;41.410;2.160;2023-05-10T08:00:08;19.80;99.90
5364;DHT22;2705;41.410;2.160;2023-05-10T08:02:41;20.10;99.90
5364;DHT22;2705;41.410;2.160;2023-05-10T08:05:10;20.20;99.90
5364;DHT22;2705;41.410;2.160;2023-05-10T08:07:39;20.40;99.90
5364;DHT22;2705;41.410;2.160;2023-05-10T08:10:09;20.50;99.90
5364;DHT22;2705;41.410;2.160;2023-05-10T08:12:41;20.50;99.90
5364;DHT22;2705;41.410;2.160;2023-05-10T08:15:10;20.60;99.90
5364;DHT22;2705;41.410;2.160;2023-05-10T08:17:40;20.80;99.90
5364;DHT22;2705;41.410;2.160;2023-05-10T08:20:10;20.70;99.90
5364;DHT22;2705;41.410;2.160;2023-05-10T08:22:45;20.70;99.90
5364;DHT22;2705;41.410;2.160;2023-05-10T08:25:17;20.70;99.90
5364;DHT22;2705;41.410;2.160;2023-05-10T08:27:47;21.00;99.90
5364;DHT22;2705;41.410;2.160;2023-05-10T08:30:16;21.10;99.90
5364;DHT22;2705;41.410;2.160;2023-05-10T08:32:45;21.00;99.90
5364;DHT22;2705;41.410;2.160;2023-05-10T08:35:15;21.50;99.90
5364;DHT22;2705;41.410;2.160;2023-05-10T08:37:45;21.90;99.90
5364;DHT22;2705;41.410;2.160;2023-05-10T08:40:14;21.60;99.90
5364;DHT22;2705;41.410;2.160;2023-05-10T08:42:50;21.40;99.90
5364;DHT22;2705;41.410;2.160;2023-05-10T08:45:20;21.40;99.90
5364;DHT22;2705;41.410;2.160;2023-05-10T08:47:52;21.60;99.90
5364;DHT22;2705;41.410;2.160;2023-05-10T08:50:21;20.90;99.90
5364;DHT22;2705;41.410;2.160;2023-05-10T08:52:52;21.20;99.90
5364;DHT22;2705;41.410;2.160;2023-05-10T08:55:22;21.60;99.90
5364;DHT22;2705;41.410;2.160;2023-05-10T08:57:53;21.60;99.90
5364;DHT22;2705;41.410;2.160;2023-05-10T09:00:23;21.70;99.90
5364;DHT22;2705;41.410;2.160;2023-05-10T09:02:52;21.50;99.90
5364;DHT22;2705;41.410;2.160;2023-05-10T09:05:22;21.50;99.90
5364;DHT22;2705;41.410;2.160;2023-05-10T09:07:51;21.70;99.90
5364;DHT22;2705;41.410;2.160;2023-05-10T09:10:21;21.50;99.90
5364;DHT22;2705;41.410;2.160;2023-05-10T09:12:50;22.00;99.90
5364;DHT22;2705;41.410;2.160;2023-05-10T09:15:20;22.30;99.90
5364;DHT22;2705;41.410;2.160;2023-05-10T09:17:50;22.60;99.90
5364;DHT22;2705;41.410;2.160;2023-05-10T09:20:19;22.60;99.90
5364;DHT22;2705;41.410;2.160;2023-05-10T09:22:49;22.80;99.90
5364;DHT22;2705;41.410;2.160;2023-05-10T09:25:18;22.70;99.90
5364;DHT22;2705;41.410;2.160;2023-05-10T09:27:48;22.40;99.90
5364;DHT22;2705;41.410;2.160;2023-05-10T09:30:25;22.00;99.90
5364;DHT22;2705;41.410;2.160;2023-05-10T09:32:55;22.20;99.90
5364;DHT22;2705;41.410;2.160;2023-05-10T09:35:26;21.90;99.90
5364;DHT22;2705;41.410;2.160;2023-05-10T09:37:57;22.00;99.90
5364;DHT22;2705;41.410;2.160;2023-05-10T09:40:27;21.90;99.90
5364;DHT22;2705;41.410;2.160;2023-05-10T09:42:58;21.90;99.90
5364;DHT22;2705;41.410;2.160;2023-05-10T09:45:30;21.70;99.90
5364;DHT22;2705;41.410;2.160;2023-05-10T09:48:02;21.90;99.90
5364;DHT22;2705;41.410;2.160;2023-05-10T09:50:31;22.10;99.90
5364;DHT22;2705;41.410;2.160;2023-05-10T09:53:03;22.30;99.90
5364;DHT22;2705;41.410;2.160;2023-05-10T09:55:39;21.60;99.90
5364;DHT22;2705;41.410;2.160;2023-05-10T09:58:08;21.50;99.90
5364;DHT22;2705;41.410;2.160;2023-05-10T10:00:40;21.40;99.90
5364;DHT22;2705;41.410;2.160;2023-05-10T10:03:13;21.40;99.90
5364;DHT22;2705;41.410;2.160;2023-05-10T10:05:43;21.40;99.90
5364;DHT22;2705;41.410;2.160;2023-05-10T10:08:13;21.20;99.90
5364;DHT22;2705;41.410;2.160;2023-05-10T10:10:42;21.60;99.90
5364;DHT22;2705;41.410;2.160;2023-05-10T10:13:14;21.50;99.90
5364;DHT22;2705;41.410;2.160;2023-05-10T10:15:46;21.60;99.90
5364;DHT22;2705;41.410;2.160;2023-05-10T10:18:19;21.10;99.90
5364;DHT22;2705;41.410;2.160;2023-05-10T10:20:51;21.00;99.90
5364;DHT22;2705;41.410;2.160;2023-05-10T10:23:21;21.30;99.90
5364;DHT22;2705;41.410;2.160;2023-05-10T10:25:51;21.60;99.90
5364;DHT22;2705;41.410;2.160;2023-05-10T10:28:39;21.40;99.90
5364;DHT22;2705;41.410;2.160;2023-05-10T10:31:21;21.40;99.90
5364;DHT22;2705;41.410;2.160;2023-05-10T10:34:01;22.10;99.90
5364;DHT22;2705;41.410;2.160;2023-05-10T10:36:32;22.40;99.90
5364;DHT22;2705;41.410;2.160;2023-05-10T10:39:09;21.60;99.90
5364;DHT22;2705;41.410;2.160;2023-05-10T10:41:40;21.50;99.90
5364;DHT22;2705;41.410;2.160;2023-05-10T10:44:36;21.60;99.90
5364;DHT22;2705;41.410;2.160;2023-05-10T10:47:22;21.90;99.90
5364;DHT22;2705;41.410;2.160;2023-05-10T10:50:03;21.90;99.90
5364;DHT22;2705;41.410;2.160;2023-05-10T10:52:34;22.30;99.90
5364;DHT22;2705;41.410;2.160;2023-05-10T10:55:05;22.10;99.90
5364;DHT22;2705;41.410;2.160;2023-05-10T10:57:47;22.10;99.90
5364;DHT22;2705;41.410;2.160;2023-05-10T11:00:24;21.60;99.90
5364;DHT22;2705;41.410;2.160;2023-05-10T11:02:57;21.30;99.90
5364;DHT22;2705;41.410;2.160;2023-05-10T11:05:45;21.80;99.90
5364;DHT22;2705;41.410;2.160;2023-05-10T11:08:17;21.80;99.90
5364;DHT22;2705;41.410;2.160;2023-05-10T11:11:01;21.50;99.90
5364;DHT22;2705;41.410;2.160;2023-05-10T11:13:33;21.60;99.90
5364;DHT22;2705;41.410;2.160;2023-05-10T11:16:18;21.60;99.90
5364;DHT22;2705;41.410;2.160;2023-05-10T11:18:58;21.50;99.90
5364;DHT22;2705;41.410;2.160;2023-05-10T11:21:29;21.00;99.90
5364;DHT22;2705;41.410;2.160;2023-05-10T11:23:59;20.90;99.90
5364;DHT22;2705;41.410;2.160;2023-05-10T11:26:34;20.90;99.90
5364;DHT22;2705;41.410;2.160;2023-05-10T11:29:04;21.10;99.90
5364;DHT22;2705;41.410;2.160;2023-05-10T11:31:35;21.30;99.90
5364;DHT22;2705;41.410;2.160;2023-05-10T11:34:23;22.00;99.90
5364;DHT22;2705;41.410;2.160;2023-05-10T11:36:53;22.10;99.90
5364;DHT22;2705;41.410;2.160;2023-05-10T11:39:26;22.10;99.90
5364;DHT22;2705;41.410;2.160;2023-05-10T11:41:56;22.30;99.90
5364;DHT22;2705;41.410;2.160;2023-05-10T11:44:29;21.80;99.90
5364;DHT22;2705;41.410;2.160;2023-05-10T11:46:59;22.30;99.90
5364;DHT22;2705;41.410;2.160;2023-05-10T11:49:30;22.30;99.90
5364;DHT22;2705;41.410;2.160;2023-05-10T11:52:09;21.90;99.90
5364;DHT22;2705;41.410;2.160;2023-05-10T11:54:45;22.00;99.90
5364;DHT22;2705;41.410;2.160;2023-05-10T11:57:14;21.30;99.90
5364;DHT22;2705;41.410;2.160;2023-05-10T11:59:44;21.50;99.90
5364;DHT22;2705;41.410;2.160;2023-05-10T12:02:14;21.50;99.90
5364;DHT22;2705;41.410;2.160;2023-05-10T12:04:44;21.00;99.90
5364;DHT22;2705;41.410;2.160;2023-05-10T12:07:14;20.80;99.90
5364;DHT22;2705;41.410;2.160;2023-05-10T12:09:43;20.90;99.90
5364;DHT22;2705;41.410;2.160;2023-05-10T12:12:16;21.50;99.90
5364;DHT22;2705;41.410;2.160;2023-05-10T12:14:49;21.90;99.90
5364;DHT22;2705;41.410;2.160;2023-05-10T12:17:19;22.40;99.90
5364;DHT22;2705;41.410;2.160;2023-05-10T12:19:50;22.00;99.90
5364;DHT22;2705;41.410;2.160;2023-05-10T12:22:21;22.00;99.90
5364;DHT22;2705;41.410;2.160;2023-05-10T12:24:50;22.40;99.90
5364;DHT22;2705;41.410;2.160;2023-05-10T12:27:19;22.70;99.90
5364;DHT22;2705;41.410;2.160;2023-05-10T12:29:59;22.90;99.90
5364;DHT22;2705;41.410;2.160;2023-05-10T12:32:38;23.00;99.90
5364;DHT22;2705;41.410;2.160;2023-05-10T12:35:08;22.70;99.90
5364;DHT22;2705;41.410;2.160;2023-05-10T12:37:37;22.60;99.90
5364;DHT22;2705;41.410;2.160;2023-05-10T12:40:08;22.90;99.90
5364;DHT22;2705;41.410;2.160;2023-05-10T12:42:38;22.80;99.90
5364;DHT22;2705;41.410;2.160;2023-05-10T12:45:09;21.90;99.90
5364;DHT22;2705;41.410;2.160;2023-05-10T12:47:38;22.00;99.90
5364;DHT22;2705;41.410;2.160;2023-05-10T12:50:12;22.30;99.90
5364;DHT22;2705;41.410;2.160;2023-05-10T12:52:41;22.30;99.90
5364;DHT22;2705;41.410;2.160;2023-05-10T12:55:10;22.20;99.90
5364;DHT22;2705;41.410;2.160;2023-05-10T12:57:39;22.10;99.90
5364;DHT22;2705;41.410;2.160;2023-05-10T13:00:10;22.10;99.90
5364;DHT22;2705;41.410;2.160;2023-05-10T13:02:39;22.20;99.90
5364;DHT22;2705;41.410;2.160;2023-05-10T13:05:08;22.00;99.90
5364;DHT22;2705;41.410;2.160;2023-05-10T13:07:39;21.80;99.90
5364;DHT22;2705;41.410;2.160;2023-05-10T13:10:11;21.60;99.90
5364;DHT22;2705;41.410;2.160;2023-05-10T13:12:40;21.70;99.90
5364;DHT22;2705;41.410;2.160;2023-05-10T13:15:09;21.60;99.90
5364;DHT22;2705;41.410;2.160;2023-05-10T13:17:38;22.20;99.90
5364;DHT22;2705;41.410;2.160;2023-05-10T13:20:08;22.20;99.90
5364;DHT22;2705;41.410;2.160;2023-05-10T13:22:39;21.90;99.90
5364;DHT22;2705;41.410;2.160;2023-05-10T13:25:09;21.90;99.90
5364;DHT22;2705;41.410;2.160;2023-05-10T13:27:38;21.70;99.90
5364;DHT22;2705;41.410;2.160;2023-05-10T13:30:08;21.90;99.90
5364;DHT22;2705;41.410;2.160;2023-05-10T13:32:38;21.80;99.90
5364;DHT22;2705;41.410;2.160;2023-05-10T13:35:08;21.80;99.90
5364;DHT22;2705;41.410;2.160;2023-05-10T13:37:38;21.60;99.90
5364;DHT22;2705;41.410;2.160;2023-05-10T13:40:08;21.70;99.90
5364;DHT22;2705;41.410;2.160;2023-05-10T13:42:37;22.20;99.90
5364;DHT22;2705;41.410;2.160;2023-05-10T13:45:07;22.50;99.90
5364;DHT22;2705;41.410;2.160;2023-05-10T13:47:37;22.70;99.90
5364;DHT22;2705;41.410;2.160;2023-05-10T13:50:07;22.80;99.90
5364;DHT22;2705;41.410;2.160;2023-05-10T13:52:36;22.30;99.90
5364;DHT22;2705;41.410;2.160;2023-05-10T13:55:07;22.80;99.90
5364;DHT22;2705;41.410;2.160;2023-05-10T13:57:36;23.50;99.90
5364;DHT22;2705;41.410;2.160;2023-05-10T14:00:07;23.70;99.90
5364;DHT22;2705;41.410;2.160;2023-05-10T14:02:36;23.80;99.90
5364;DHT22;2705;41.410;2.160;2023-05-10T14:05:06;23.90;99.90
5364;DHT22;2705;41.410;2.160;2023-05-10T14:07:35;22.60;99.90
5364;DHT22;2705;41.410;2.160;2023-05-10T14:10:06;22.90;99.90
5364;DHT22;2705;41.410;2.160;2023-05-10T14:12:36;22.90;99.90
5364;DHT22;2705;41.410;2.160;2023-05-10T14:15:05;23.30;99.90
5364;DHT22;2705;41.410;2.160;2023-05-10T14:17:35;23.40;99.90
5364;DHT22;2705;41.410;2.160;2023-05-10T14:20:05;23.50;99.90
5364;DHT22;2705;41.410;2.160;2023-05-10T14:22:35;23.90;99.90
5364;DHT22;2705;41.410;2.160;2023-05-10T14:25:06;23.40;99.90
5364;DHT22;2705;41.410;2.160;2023-05-10T14:27:35;23.00;99.90
5364;DHT22;2705;41.410;2.160;2023-05-10T14:30:05;23.10;99.90
5364;DHT22;2705;41.410;2.160;2023-05-10T14:32:35;23.60;99.90
5364;DHT22;2705;41.410;2.160;2023-05-10T14:35:06;23.50;99.90
5364;DHT22;2705;41.410;2.160;2023-05-10T14:37:38;23.30;99.90
5364;DHT22;2705;41.410;2.160;2023-05-10T14:40:10;23.10;99.90
5364;DHT22;2705;41.410;2.160;2023-05-10T14:42:39;23.60;99.90
5364;DHT22;2705;41.410;2.160;2023-05-10T14:45:09;23.10;99.90
5364;DHT22;2705;41.410;2.160;2023-05-10T14:47:39;22.70;99.90
5364;DHT22;2705;41.410;2.160;2023-05-10T14:50:08;23.10;99.90
5364;DHT22;2705;41.410;2.160;2023-05-10T14:52:45;22.70;99.90
5364;DHT22;2705;41.410;2.160;2023-05-10T14:55:15;22.40;99.90
5364;DHT22;2705;41.410;2.160;2023-05-10T14:57:45;22.50;99.90
5364;DHT22;2705;41.410;2.160;2023-05-10T15:00:15;22.00;99.90
5364;DHT22;2705;41.410;2.160;2023-05-10T15:02:47;21.90;99.90
5364;DHT22;2705;41.410;2.160;2023-05-10T15:05:17;21.80;99.90
5364;DHT22;2705;41.410;2.160;2023-05-10T15:07:46;21.90;99.90
5364;DHT22;2705;41.410;2.160;2023-05-10T15:10:17;21.70;99.90
5364;DHT22;2705;41.410;2.160;2023-05-10T15:12:46;21.80;99.90
5364;DHT22;2705;41.410;2.160;2023-05-10T15:15:15;22.00;99.90
5364;DHT22;2705;41.410;2.160;2023-05-10T15:17:45;21.40;99.90
5364;DHT22;2705;41.410;2.160;2023-05-10T15:20:14;21.40;99.90
5364;DHT22;2705;41.410;2.160;2023-05-10T15:22:43;21.20;99.90
5364;DHT22;2705;41.410;2.160;2023-05-10T15:25:13;21.00;99.90
5364;DHT22;2705;41.410;2.160;2023-05-10T15:27:45;21.00;99.90
5364;DHT22;2705;41.410;2.160;2023-05-10T15:30:14;20.90;99.90
5364;DHT22;2705;41.410;2.160;2023-05-10T15:32:43;20.90;99.90
5364;DHT22;2705;41.410;2.160;2023-05-10T15:35:12;21.00;99.90
5364;DHT22;2705;41.410;2.160;2023-05-10T15:37:41;21.20;99.90
5364;DHT22;2705;41.410;2.160;2023-05-10T15:40:11;21.10;99.90
5364;DHT22;2705;41.410;2.160;2023-05-10T15:42:41;20.70;99.90
5364;DHT22;2705;41.410;2.160;2023-05-10T15:45:12;20.80;99.90
5364;DHT22;2705;41.410;2.160;2023-05-10T15:47:43;21.00;99.90
5364;DHT22;2705;41.410;2.160;2023-05-10T15:50:12;21.30;99.90
5364;DHT22;2705;41.410;2.160;2023-05-10T15:52:41;21.40;99.90
5364;DHT22;2705;41.410;2.160;2023-05-10T15:55:10;21.10;99.90
5364;DHT22;2705;41.410;2.160;2023-05-10T15:57:41;21.10;99.90
5364;DHT22;2705;41.410;2.160;2023-05-10T16:00:12;20.90;99.90
5364;DHT22;2705;41.410;2.160;2023-05-10T16:02:41;20.80;99.90
5364;DHT22;2705;41.410;2.160;2023-05-10T16:05:11;20.70;99.90
5364;DHT22;2705;41.410;2.160;2023-05-10T16:07:40;20.60;99.90
5364;DHT22;2705;41.410;2.160;2023-05-10T16:10:10;20.70;99.90
5364;DHT22;2705;41.410;2.160;2023-05-10T16:12:39;20.70;99.90
5364;DHT22;2705;41.410;2.160;2023-05-10T16:15:11;20.90;99.90
5364;DHT22;2705;41.410;2.160;2023-05-10T16:17:40;20.80;99.90
5364;DHT22;2705;41.410;2.160;2023-05-10T16:20:10;20.90;99.90
5364;DHT22;2705;41.410;2.160;2023-05-10T16:22:40;21.00;99.90
5364;DHT22;2705;41.410;2.160;2023-05-10T16:25:11;21.00;99.90
5364;DHT22;2705;41.410;2.160;2023-05-10T16:27:40;20.70;99.90